createdAt,value
2018-06-10T00:00:03.787Z,15.57
2018-06-10T00:02:35.388Z,13.83
2018-06-10T00:05:06.390Z,15.13
2018-06-10T00:07:38.637Z,14.60
2018-06-10T00:10:09.807Z,15.90
2018-06-10T00:12:41.062Z,16.27
2018-06-10T00:15:12.363Z,15.57
2018-06-10T00:17:43.058Z,17.80
2018-06-10T00:20:14.513Z,17.80
2018-06-10T00:22:45.557Z,19.13
2018-06-10T00:25:16.675Z,19.40
2018-06-10T00:27:47.676Z,19.85
2018-06-10T00:30:18.412Z,18.30
2018-06-10T00:32:49.452Z,19.10
2018-06-10T00:35:20.696Z,19.10
2018-06-10T00:37:51.731Z,19.27
2018-06-10T00:40:22.774Z,20.57
2018-06-10T00:42:53.673Z,20.37
2018-06-10T00:45:24.654Z,19.43
2018-06-10T00:47:56.744Z,20.80
2018-06-10T00:50:27.729Z,21.57
2018-06-10T00:52:58.699Z,20.07
2018-06-10T00:55:29.770Z,21.03
2018-06-10T00:58:01.349Z,20.87
2018-06-10T01:00:32.366Z,20.13
2018-06-10T01:03:04.681Z,21.70
2018-06-10T01:05:35.649Z,22.40
2018-06-10T01:08:06.358Z,20.77
2018-06-10T01:10:37.397Z,23.47
2018-06-10T01:13:07.998Z,21.07
2018-06-10T01:15:39.005Z,23.37
2018-06-10T01:18:10.062Z,21.53
2018-06-10T01:20:40.974Z,22.43
2018-06-10T01:23:13.043Z,21.57
2018-06-10T01:25:44.018Z,21.15
2018-06-10T01:28:15.017Z,20.07
2018-06-10T01:30:45.917Z,21.12
2018-06-10T01:33:16.870Z,20.47
2018-06-10T01:35:47.544Z,20.02
2018-06-10T01:38:18.298Z,21.13
2018-06-10T01:40:49.583Z,20.77
2018-06-10T01:43:21.185Z,22.40
2018-06-10T01:45:52.170Z,20.00
2018-06-10T01:48:23.160Z,20.33
2018-06-10T01:50:54.168Z,20.70
2018-06-10T01:53:25.043Z,19.77
2018-06-10T01:55:56.091Z,20.90
2018-06-10T01:58:27.915Z,19.60
2018-06-10T02:00:58.546Z,19.53
2018-06-10T02:03:29.580Z,20.40
2018-06-10T02:06:00.536Z,20.47
2018-06-10T02:08:31.599Z,20.40
2018-06-10T02:11:02.673Z,19.90
2018-06-10T02:13:33.679Z,20.70
2018-06-10T02:16:05.242Z,21.53
2018-06-10T02:18:36.165Z,18.60
2018-06-10T02:21:07.301Z,19.63
2018-06-10T02:23:38.182Z,19.07
2018-06-10T02:26:09.301Z,19.10
2018-06-10T02:28:40.410Z,21.30
2018-06-10T02:31:11.459Z,20.00
2018-06-10T02:33:43.594Z,20.80
2018-06-10T02:36:14.263Z,20.00
2018-06-10T02:38:45.174Z,21.02
2018-06-10T02:41:16.313Z,19.43
2018-06-10T02:43:47.362Z,19.57
2018-06-10T02:46:18.369Z,19.07
2018-06-10T02:48:50.337Z,21.20
2018-06-10T02:51:21.326Z,22.80
2018-06-10T02:53:52.271Z,21.37
2018-06-10T02:56:23.324Z,20.63
2018-06-10T02:58:54.388Z,19.83
2018-06-10T03:01:25.888Z,20.97
2018-06-10T03:03:56.925Z,20.87
2018-06-10T03:06:27.625Z,19.13
2018-06-10T03:08:58.521Z,20.20
2018-06-10T03:11:29.524Z,18.73
2018-06-10T03:14:01.559Z,19.50
2018-06-10T03:16:32.492Z,21.00
2018-06-10T03:19:03.473Z,19.90
2018-06-10T03:21:34.633Z,20.03
2018-06-10T03:24:05.938Z,19.90
2018-06-10T03:26:37.982Z,21.37
2018-06-10T03:29:08.882Z,18.63
2018-06-10T03:31:39.991Z,20.10
2018-06-10T03:34:10.961Z,19.70
2018-06-10T03:36:42.073Z,19.40
2018-06-10T03:39:14.067Z,18.77
2018-06-10T03:41:45.102Z,19.87
2018-06-10T03:44:16.297Z,19.30
2018-06-10T03:46:47.489Z,18.60
2018-06-10T03:49:18.468Z,18.20
2018-06-10T03:51:49.559Z,18.57
2018-06-10T03:54:20.357Z,20.67
2018-06-10T03:56:51.578Z,19.87
2018-06-10T03:59:22.470Z,19.73
2018-06-10T04:01:53.496Z,20.37
2018-06-10T04:04:24.345Z,20.93
2018-06-10T04:06:55.273Z,20.32
2018-06-10T04:09:26.238Z,19.40
2018-06-10T04:11:57.379Z,19.27
2018-06-10T04:14:30.432Z,22.10
2018-06-10T04:17:01.378Z,20.73
2018-06-10T04:19:33.546Z,20.60
2018-06-10T04:22:04.131Z,19.37
2018-06-10T04:24:36.241Z,20.37
2018-06-10T04:27:07.224Z,20.17
2018-06-10T04:29:38.276Z,18.60
2018-06-10T04:32:09.277Z,18.57
2018-06-10T04:34:40.391Z,17.87
2018-06-10T04:37:11.348Z,19.53
2018-06-10T04:39:41.955Z,18.52
2018-06-10T04:42:12.843Z,19.90
2018-06-10T04:44:43.832Z,18.48
2018-06-10T04:47:14.915Z,19.70
2018-06-10T04:49:45.863Z,19.90
2018-06-10T04:52:17.325Z,20.30
2018-06-10T04:54:49.222Z,18.42
2018-06-10T04:57:20.905Z,18.00
2018-06-10T04:59:52.477Z,17.40
2018-06-10T05:02:23.685Z,16.77
2018-06-10T05:04:54.264Z,16.80
2018-06-10T05:07:25.214Z,16.43
2018-06-10T05:09:56.214Z,17.83
2018-06-10T05:12:27.113Z,18.63
2018-06-10T05:14:58.158Z,17.20
2018-06-10T05:17:29.176Z,17.97
2018-06-10T05:20:00.250Z,17.60
2018-06-10T05:22:31.197Z,16.40
2018-06-10T05:25:02.229Z,17.70
2018-06-10T05:27:33.224Z,18.77
2018-06-10T05:30:04.296Z,17.63
2018-06-10T05:32:35.314Z,18.10
2018-06-10T05:35:06.636Z,17.93
2018-06-10T05:37:38.356Z,16.60
2018-06-10T05:40:09.342Z,18.27
2018-06-10T05:42:40.373Z,17.53
2018-06-10T05:45:11.405Z,18.53
2018-06-10T05:47:42.505Z,18.95
2018-06-10T05:50:13.728Z,19.37
2018-06-10T05:52:44.785Z,18.10
2018-06-10T05:55:15.934Z,18.50
2018-06-10T05:57:47.123Z,17.25
2018-06-10T06:00:17.640Z,17.80
2018-06-10T06:02:48.613Z,17.65
2018-06-10T06:05:19.647Z,18.00
2018-06-10T06:07:50.857Z,18.60
2018-06-10T06:10:21.796Z,17.70
2018-06-10T06:12:52.843Z,18.25
2018-06-10T06:15:23.481Z,17.20
2018-06-10T06:17:54.301Z,18.70
2018-06-10T06:20:25.402Z,19.30
2018-06-10T06:22:57.503Z,18.97
2018-06-10T06:25:30.152Z,19.60
2018-06-10T06:28:01.038Z,20.60
2018-06-10T06:30:32.115Z,20.30
2018-06-10T06:33:03.282Z,20.70
2018-06-10T06:35:34.854Z,19.63
2018-06-10T06:38:06.930Z,19.90
2018-06-10T06:40:38.493Z,19.20
2018-06-10T06:43:09.707Z,22.20
2018-06-10T06:45:40.935Z,22.70
2018-06-10T06:48:11.958Z,21.50
2018-06-10T06:50:43.115Z,22.10
2018-06-10T06:53:13.895Z,22.53
2018-06-10T06:55:44.993Z,24.00
2018-06-10T06:58:16.108Z,21.70
2018-06-10T07:00:46.707Z,20.75
2018-06-10T07:03:17.562Z,20.87
2018-06-10T07:05:48.485Z,22.75
2018-06-10T07:08:19.740Z,23.00
2018-06-10T07:10:51.937Z,23.35
2018-06-10T07:13:22.979Z,24.67
2018-06-10T07:15:54.111Z,24.65
2018-06-10T07:18:25.158Z,26.53
2018-06-10T07:20:56.331Z,25.07
2018-06-10T07:23:27.235Z,22.90
2018-06-10T07:25:58.053Z,25.47
2018-06-10T07:28:29.289Z,22.40
2018-06-10T07:31:01.433Z,25.53
2018-06-10T07:33:32.653Z,21.97
2018-06-10T07:36:03.664Z,22.30
2018-06-10T07:38:34.751Z,21.80
2018-06-10T07:41:06.117Z,19.53
2018-06-10T07:43:37.884Z,23.90
2018-06-10T07:46:08.930Z,21.10
2018-06-10T07:48:40.059Z,21.60
2018-06-10T07:51:11.242Z,18.27
2018-06-10T07:53:42.277Z,16.87
2018-06-10T07:56:13.412Z,17.50
2018-06-10T07:58:44.402Z,19.53
2018-06-10T08:01:15.358Z,16.80
2018-06-10T08:03:46.416Z,18.00
2018-06-10T08:06:17.487Z,16.93
2018-06-10T08:08:48.260Z,16.60
2018-06-10T08:11:19.322Z,16.33
2018-06-10T08:13:50.452Z,16.02
2018-06-10T08:16:21.711Z,18.33
2018-06-10T08:18:53.130Z,15.08
2018-06-10T08:21:24.214Z,13.57
2018-06-10T08:23:55.528Z,15.53
2018-06-10T08:26:26.621Z,14.93
2018-06-10T08:28:57.644Z,14.97
2018-06-10T08:31:28.742Z,15.57
2018-06-10T08:34:00.000Z,14.00
2018-06-10T08:36:31.145Z,15.40
2018-06-10T08:39:01.930Z,14.97
2018-06-10T08:41:32.919Z,14.90
2018-06-10T08:44:04.171Z,13.03
2018-06-10T08:46:35.100Z,14.00
2018-06-10T08:49:06.208Z,16.00
2018-06-10T08:51:37.249Z,13.93
2018-06-10T08:54:08.311Z,14.57
2018-06-10T08:56:39.466Z,14.37
2018-06-10T08:59:11.044Z,13.53
2018-06-10T09:01:42.295Z,15.03
2018-06-10T09:04:13.327Z,14.40
2018-06-10T09:06:44.341Z,11.88
2018-06-10T09:09:15.403Z,14.53
2018-06-10T09:11:47.206Z,13.38
2018-06-10T09:14:18.422Z,14.53
2018-06-10T09:16:49.586Z,14.13
2018-06-10T09:19:20.567Z,13.33
2018-06-10T09:21:52.891Z,13.35
2018-06-10T09:24:23.901Z,15.30
2018-06-10T09:26:54.878Z,15.60
2018-06-10T09:29:26.061Z,15.20
2018-06-10T09:31:57.259Z,14.20
2018-06-10T09:34:28.507Z,13.97
2018-06-10T09:36:59.868Z,14.27
2018-06-10T09:39:30.991Z,12.70
2018-06-10T09:42:03.092Z,14.20
2018-06-10T09:44:34.311Z,13.77
2018-06-10T09:47:05.321Z,11.67
2018-06-10T09:49:36.418Z,13.90
2018-06-10T09:52:07.943Z,13.40
2018-06-10T09:54:39.046Z,13.00
2018-06-10T09:57:09.667Z,13.77
2018-06-10T09:59:40.630Z,12.80
2018-06-10T10:02:11.745Z,13.67
2018-06-10T10:04:42.959Z,14.00
2018-06-10T10:07:14.050Z,13.90
2018-06-10T10:09:45.331Z,12.75
2018-06-10T10:12:16.492Z,12.47
2018-06-10T10:14:47.676Z,14.35
2018-06-10T10:17:18.583Z,13.07
2018-06-10T10:19:49.854Z,13.83
2018-06-10T10:22:21.785Z,13.33
2018-06-10T10:24:53.016Z,14.20
2018-06-10T10:27:24.214Z,13.50
2018-06-10T10:29:55.031Z,13.37
2018-06-10T10:32:26.158Z,14.20
2018-06-10T10:34:57.388Z,12.63
2018-06-10T10:37:28.465Z,11.53
2018-06-10T10:39:59.461Z,11.53
2018-06-10T10:42:30.234Z,12.10
2018-06-10T10:45:01.244Z,10.60
2018-06-10T10:47:32.411Z,8.70
2018-06-10T10:50:03.555Z,10.13
2018-06-10T10:52:34.760Z,9.67
2018-06-10T10:55:05.745Z,8.40
2018-06-10T10:57:36.718Z,10.00
2018-06-10T11:00:08.022Z,11.07
2018-06-10T11:02:39.073Z,9.67
2018-06-10T11:05:10.289Z,10.70
2018-06-10T11:07:41.510Z,9.53
2018-06-10T11:10:12.470Z,9.67
2018-06-10T11:12:43.647Z,10.00
2018-06-10T11:15:14.682Z,8.70
2018-06-10T11:17:51.336Z,8.87
2018-06-10T11:20:28.045Z,7.57
2018-06-10T11:22:59.693Z,8.00
2018-06-10T11:25:30.783Z,8.47
2018-06-10T11:28:01.853Z,7.70
2018-06-10T11:30:33.562Z,7.60
2018-06-10T11:33:04.847Z,7.00
2018-06-10T11:35:35.852Z,8.90
2018-06-10T11:38:07.491Z,8.60
2018-06-10T11:40:38.743Z,8.33
2018-06-10T11:43:09.208Z,8.10
2018-06-10T11:45:40.264Z,8.47
2018-06-10T11:48:11.214Z,7.90
2018-06-10T11:50:42.568Z,8.00
2018-06-10T11:53:14.229Z,8.23
2018-06-10T11:55:45.355Z,7.57
2018-06-10T11:58:16.404Z,9.07
2018-06-10T12:00:47.602Z,9.10
2018-06-10T12:03:18.816Z,10.40
2018-06-10T12:05:50.071Z,9.67
2018-06-10T12:08:22.089Z,9.50
2018-06-10T12:10:54.629Z,10.07
2018-06-10T12:13:26.749Z,9.80
2018-06-10T12:15:59.316Z,8.83
2018-06-10T12:18:30.335Z,9.87
2018-06-10T12:21:01.645Z,9.53
2018-06-10T12:23:32.852Z,10.40
2018-06-10T12:26:03.960Z,10.23
2018-06-10T12:28:35.112Z,11.40
2018-06-10T12:31:07.421Z,10.93
2018-06-10T12:33:38.439Z,9.15
2018-06-10T12:36:09.577Z,9.93
2018-06-10T12:38:40.760Z,9.88
2018-06-10T12:41:11.708Z,10.03
2018-06-10T12:43:42.931Z,11.93
2018-06-10T12:46:13.912Z,12.00
2018-06-10T12:48:45.350Z,11.85
2018-06-10T12:51:16.550Z,12.40
2018-06-10T12:53:47.703Z,10.18
2018-06-10T12:56:18.994Z,10.07
2018-06-10T12:58:50.168Z,10.50
2018-06-10T13:01:21.452Z,9.40
2018-06-10T13:03:53.099Z,9.73
2018-06-10T13:06:24.229Z,7.50
2018-06-10T13:08:55.448Z,8.60
2018-06-10T13:11:26.748Z,8.95
2018-06-10T13:13:57.936Z,7.60
2018-06-10T13:16:28.498Z,8.90
2018-06-10T13:18:59.617Z,8.63
2018-06-10T13:21:31.718Z,8.40
2018-06-10T13:24:02.837Z,8.73
2018-06-10T13:26:34.220Z,8.75
2018-06-10T13:29:05.398Z,9.25
2018-06-10T13:31:36.605Z,9.58
2018-06-10T13:34:08.463Z,9.00
2018-06-10T13:36:39.694Z,8.23
2018-06-10T13:39:10.989Z,9.10
2018-06-10T13:41:42.101Z,9.05
2018-06-10T13:44:13.058Z,9.30
2018-06-10T13:46:44.082Z,9.30
2018-06-10T13:49:15.190Z,7.97
2018-06-10T13:51:46.464Z,8.28
2018-06-10T13:54:17.505Z,7.25
2018-06-10T13:56:49.950Z,7.50
2018-06-10T14:01:45.293Z,8.40
2018-06-10T14:04:16.465Z,9.05
2018-06-10T14:06:47.746Z,7.55
2018-06-10T14:09:19.036Z,8.50
2018-06-10T14:11:50.235Z,8.13
2018-06-10T14:14:21.549Z,7.92
2018-06-10T14:16:52.850Z,7.42
2018-06-10T14:19:23.584Z,7.25
2018-06-10T14:22:09.979Z,7.78
2018-06-10T14:24:41.075Z,7.17
2018-06-10T14:27:12.240Z,7.93
2018-06-10T14:29:43.231Z,9.23
2018-06-10T14:32:14.387Z,7.35
2018-06-10T14:34:45.375Z,7.25
2018-06-10T14:37:16.523Z,7.70
2018-06-10T14:39:47.554Z,7.37
2018-06-10T14:42:18.840Z,7.47
2018-06-10T14:44:49.987Z,7.42
2018-06-10T14:47:22.243Z,8.00
2018-06-10T14:49:53.472Z,8.35
2018-06-10T14:52:24.800Z,7.45
2018-06-10T14:54:56.031Z,8.55
2018-06-10T14:57:27.034Z,8.10
2018-06-10T14:59:58.231Z,8.60
2018-06-10T15:02:29.359Z,8.35
2018-06-10T15:05:00.616Z,6.95
2018-06-10T15:07:31.907Z,7.97
2018-06-10T15:10:02.990Z,7.05
2018-06-10T15:12:34.122Z,8.10
2018-06-10T15:15:05.514Z,7.78
2018-06-10T15:17:37.766Z,8.40
2018-06-10T15:20:09.012Z,7.87
2018-06-10T15:22:40.170Z,8.75
2018-06-10T15:25:11.399Z,9.50
2018-06-10T15:27:42.425Z,8.55
2018-06-10T15:30:13.652Z,8.30
2018-06-10T15:32:44.831Z,7.75
2018-06-10T15:35:15.873Z,9.38
2018-06-10T15:37:47.497Z,9.05
2018-06-10T15:40:18.422Z,8.25
2018-06-10T15:42:49.556Z,9.13
2018-06-10T15:45:20.540Z,8.43
2018-06-10T15:47:51.646Z,9.18
2018-06-10T15:50:22.770Z,8.38
2018-06-10T15:52:53.860Z,8.83
2018-06-10T15:55:24.799Z,9.05
2018-06-10T15:57:55.950Z,8.20
2018-06-10T16:00:27.007Z,8.68
2018-06-10T16:02:58.163Z,9.13
2018-06-10T16:05:29.347Z,8.83
2018-06-10T16:08:00.749Z,9.13
2018-06-10T16:10:32.481Z,9.38
2018-06-10T16:13:03.723Z,9.70
2018-06-10T16:15:34.502Z,9.60
2018-06-10T16:18:07.151Z,8.38
2018-06-10T16:20:38.147Z,9.38
2018-06-10T16:23:10.048Z,9.13
2018-06-10T16:25:41.007Z,7.70
2018-06-10T16:28:12.605Z,9.30
2018-06-10T16:30:43.668Z,8.80
2018-06-10T16:33:14.649Z,8.58
2018-06-10T16:35:45.793Z,9.20
2018-06-10T16:38:17.689Z,8.55
2018-06-10T16:40:48.289Z,9.68
2018-06-10T16:43:19.274Z,9.68
2018-06-10T16:45:50.544Z,9.80
2018-06-10T16:48:22.826Z,9.60
2018-06-10T16:50:53.647Z,9.35
2018-06-10T16:53:25.533Z,9.90
2018-06-10T16:55:56.373Z,10.47
2018-06-10T16:58:29.467Z,9.33
2018-06-10T17:01:00.333Z,9.10
2018-06-10T17:03:32.292Z,9.30
2018-06-10T17:06:03.308Z,9.48
2018-06-10T17:08:34.407Z,9.43
2018-06-10T17:11:05.692Z,9.00
2018-06-10T17:13:37.023Z,8.43
2018-06-10T17:16:08.285Z,8.55
2018-06-10T17:18:39.313Z,7.90
2018-06-10T17:21:10.534Z,8.48
2018-06-10T17:23:42.818Z,7.33
2018-06-10T17:26:13.993Z,8.43
2018-06-10T17:28:45.013Z,8.18
2018-06-10T17:31:16.424Z,7.47
2018-06-10T17:33:47.352Z,8.00
2018-06-10T17:36:18.631Z,7.83
2018-06-10T17:38:49.501Z,7.90
2018-06-10T17:41:21.304Z,8.50
2018-06-10T17:43:52.035Z,8.43
2018-06-10T17:46:22.808Z,7.58
2018-06-10T17:48:53.807Z,8.53
2018-06-10T17:51:25.035Z,9.43
2018-06-10T17:53:56.560Z,8.73
2018-06-10T17:56:27.603Z,7.87
2018-06-10T17:58:58.616Z,8.25
2018-06-10T18:01:29.678Z,9.10
2018-06-10T18:04:01.315Z,8.68
2018-06-10T18:06:32.591Z,8.64
2018-06-10T18:09:03.861Z,9.10
2018-06-10T18:11:34.874Z,9.60
2018-06-10T18:14:06.214Z,9.30
2018-06-10T18:16:37.583Z,8.58
2018-06-10T18:19:08.961Z,8.28
2018-06-10T18:21:39.621Z,8.80
2018-06-10T18:24:10.403Z,8.85
2018-06-10T18:26:42.301Z,9.30
2018-06-10T18:29:13.135Z,8.80
2018-06-10T18:31:44.042Z,9.00
2018-06-10T18:34:14.838Z,8.97
2018-06-10T18:36:46.664Z,9.50
2018-06-10T18:39:17.499Z,8.57
2018-06-10T18:41:48.350Z,8.18
2018-06-10T18:44:19.093Z,9.33
2018-06-10T18:46:50.124Z,8.78
2018-06-10T18:49:21.391Z,8.47
2018-06-10T18:51:52.516Z,9.10
2018-06-10T18:54:23.310Z,9.20
2018-06-10T18:56:54.270Z,9.13
2018-06-10T18:59:25.147Z,9.50
2018-06-10T19:01:55.993Z,14.70
2018-06-10T19:04:27.006Z,10.37
2018-06-10T19:06:58.264Z,10.97
2018-06-10T19:09:29.310Z,12.50
2018-06-10T19:12:00.574Z,11.57
2018-06-10T19:14:32.631Z,13.17
2018-06-10T19:17:03.484Z,11.17
2018-06-10T19:19:34.345Z,12.63
2018-06-10T19:22:05.396Z,11.63
2018-06-10T19:24:36.197Z,12.97
2018-06-10T19:27:07.749Z,11.60
2018-06-10T19:29:38.768Z,12.70
2018-06-10T19:32:10.154Z,12.50
2018-06-10T19:34:41.375Z,12.40
2018-06-10T19:37:12.254Z,12.40
2018-06-10T19:39:43.067Z,11.93
2018-06-10T19:42:13.932Z,11.43
2018-06-10T19:44:44.932Z,11.10
2018-06-10T19:47:15.970Z,10.30
2018-06-10T19:49:46.796Z,10.68
2018-06-10T19:52:17.622Z,10.77
2018-06-10T19:54:48.404Z,10.23
2018-06-10T19:57:19.236Z,10.50
2018-06-10T19:59:50.183Z,9.53
2018-06-10T20:02:21.284Z,7.87
2018-06-10T20:04:53.137Z,7.40
2018-06-10T20:07:24.179Z,7.83
2018-06-10T20:09:55.844Z,8.33
2018-06-10T20:12:28.171Z,8.03
2018-06-10T20:14:59.384Z,7.50
2018-06-10T20:17:30.184Z,7.67
2018-06-10T20:20:01.328Z,8.30
2018-06-10T20:22:34.124Z,8.53
2018-06-10T20:25:05.147Z,7.00
2018-06-10T20:27:36.065Z,6.97
2018-06-10T20:30:07.266Z,5.57
2018-06-10T20:32:38.193Z,6.25
2018-06-10T20:35:09.855Z,6.50
2018-06-10T20:37:40.838Z,6.72
2018-06-10T20:40:12.536Z,5.97
2018-06-10T20:42:43.680Z,5.97
2018-06-10T20:45:14.756Z,6.30
2018-06-10T20:47:45.769Z,5.97
2018-06-10T20:50:16.872Z,6.57
2018-06-10T20:52:48.033Z,6.80
2018-06-10T20:55:18.916Z,6.10
2018-06-10T20:57:49.886Z,6.33
2018-06-10T21:00:20.991Z,9.83
2018-06-10T21:02:51.765Z,9.40
2018-06-10T21:05:22.561Z,8.63
2018-06-10T21:07:54.812Z,3.93
2018-06-10T21:10:25.651Z,4.17
2018-06-10T21:12:57.482Z,4.33
2018-06-10T21:15:28.299Z,6.20
2018-06-10T21:17:59.109Z,3.50
2018-06-10T21:20:30.286Z,3.37
2018-06-10T21:23:01.136Z,2.80
2018-06-10T21:25:32.928Z,2.90
2018-06-10T21:28:04.099Z,3.30
2018-06-10T21:30:35.029Z,2.70
2018-06-10T21:33:05.841Z,2.20
2018-06-10T21:35:36.641Z,2.37
2018-06-10T21:38:07.089Z,3.30
2018-06-10T21:40:37.824Z,2.67
2018-06-10T21:43:08.695Z,2.80
2018-06-10T21:45:39.665Z,2.67
2018-06-10T21:48:10.455Z,3.50
2018-06-10T21:50:41.291Z,2.95
2018-06-10T21:53:12.132Z,3.50
2018-06-10T21:55:42.942Z,3.20
2018-06-10T21:58:13.817Z,3.50
2018-06-10T22:00:45.607Z,3.63
2018-06-10T22:03:16.365Z,3.80
2018-06-10T22:05:47.111Z,3.52
2018-06-10T22:08:17.950Z,4.00
2018-06-10T22:10:48.740Z,3.90
2018-06-10T22:13:19.668Z,3.80
2018-06-10T22:15:50.474Z,3.52
2018-06-10T22:18:21.432Z,4.53
2018-06-10T22:20:52.188Z,4.10
2018-06-10T22:23:23.066Z,4.20
2018-06-10T22:25:53.822Z,5.00
2018-06-10T22:28:24.561Z,4.20
2018-06-10T22:30:56.322Z,4.53
2018-06-10T22:33:27.175Z,4.03
2018-06-10T22:37:01.470Z,4.00
2018-06-10T22:39:33.300Z,4.23
2018-06-10T22:42:04.371Z,4.67
2018-06-10T22:44:35.146Z,5.15
2018-06-10T22:47:06.232Z,4.07
2018-06-10T22:49:37.258Z,4.57
2018-06-10T22:52:08.428Z,5.40
2018-06-10T22:54:41.464Z,4.28
2018-06-10T22:57:12.180Z,4.20
2018-06-10T22:59:43.017Z,3.70
2018-06-10T23:02:14.076Z,4.40
2018-06-10T23:04:44.711Z,4.80
2018-06-10T23:07:15.985Z,4.30
2018-06-10T23:09:47.092Z,4.80
2018-06-10T23:12:18.169Z,4.67
2018-06-10T23:14:49.101Z,5.08
2018-06-10T23:17:20.002Z,3.80
2018-06-10T23:19:51.093Z,4.03
2018-06-10T23:22:22.148Z,4.10
2018-06-10T23:24:52.957Z,3.90
2018-06-10T23:27:24.043Z,4.20
2018-06-10T23:29:55.088Z,4.13
2018-06-10T23:32:26.317Z,4.40
2018-06-10T23:34:57.282Z,4.70
2018-06-10T23:37:28.485Z,5.40
2018-06-10T23:39:59.675Z,4.13
2018-06-10T23:42:30.712Z,4.67
2018-06-10T23:45:01.432Z,4.53
2018-06-10T23:47:35.265Z,5.30
2018-06-10T23:50:06.005Z,5.10
2018-06-10T23:52:36.798Z,4.90
2018-06-10T23:55:07.508Z,5.60
2018-06-10T23:57:38.292Z,6.15
